Time;durP1;ratioP1;P1;durP2;ratioP2;P2;SDS_P1;SDS_P2;PMS_P1;PMS_P2;Temp;Humidity;BMP_temperature;BMP_pressure;BME280_temperature;BME280_humidity;BME280_pressure;Samples;Min_cycle;Max_cycle;Signal;HPM_P1;HPM_P2
2023/02/09 00:04:45;;;;;;;53.6;33.3;;;;;;;-7.1;84.2;101210;;;;
2023/02/09 00:14:45;;;;;;;53.6;33.3;;;;;;;-7.2;83.9;101190;;;;
2023/02/09 00:25:45;;;;;;;42.2;29;;;;;;;-7.3;83.4;101200;;;;
2023/02/09 00:35:45;;;;;;;42.2;29;;;;;;;-7.3;83;101190;;;;
2023/02/09 00:45:45;;;;;;;42.2;29;;;;;;;-7.4;83;101180;;;;
2023/02/09 00:56:45;;;;;;;56.9;32.7;;;;;;;-7.5;83.3;101150;;;;
2023/02/09 01:07:45;;;;;;;56.9;32.7;;;;;;;-7.5;83.9;101120;;;;
2023/02/09 01:18:45;;;;;;;58.8;33.6;;;;;;;-7.4;84.1;101110;;;;
2023/02/09 01:28:45;;;;;;;58.8;33.6;;;;;;;-7.5;83.7;101100;;;;
2023/02/09 01:39:45;;;;;;;58.8;33.6;;;;;;;-7.8;82.9;101080;;;;
2023/02/09 01:50:45;;;;;;;61.5;37.4;;;;;;;-7.9;82.5;101090;;;;
2023/02/09 02:01:45;;;;;;;61.5;37.4;;;;;;;-8.3;82.7;101100;;;;
2023/02/09 02:11:45;;;;;;;61.5;37.4;;;;;;;-8.2;82.9;101100;;;;
2023/02/09 02:21:45;;;;;;;70.4;41.9;;;;;;;-8.4;82.9;101090;;;;
2023/02/09 02:31:45;;;;;;;70.4;41.9;;;;;;;-8.3;82.7;101080;;;;
2023/02/09 02:42:48;;;;;;;70.4;41.9;;;;;;;-8.2;82.6;101070;;;;
2023/02/09 02:52:45;;;;;;;76.3;48.3;;;;;;;-8.2;82.5;101070;;;;
2023/02/09 03:02:46;;;;;;;76.3;48.3;;;;;;;-8.2;82.4;101070;;;;
2023/02/09 03:12:45;;;;;;;76.3;48.3;;;;;;;-8.2;82.7;101060;;;;
2023/02/09 03:22:45;;;;;;;52.7;28.6;;;;;;;-8.1;82.9;101050;;;;
2023/02/09 03:32:45;;;;;;;52.7;28.6;;;;;;;-8.1;82.8;101050;;;;
2023/02/09 03:42:45;;;;;;;52.7;28.6;;;;;;;-8.2;82.3;101040;;;;
2023/02/09 03:53:46;;;;;;;52.9;32.5;;;;;;;-8.2;82.1;101030;;;;
2023/02/09 04:04:45;;;;;;;52.9;32.5;;;;;;;-8.2;82.2;101010;;;;
2023/02/09 04:14:45;;;;;;;52.9;32.5;;;;;;;-8.2;82.1;101010;;;;
2023/02/09 04:25:45;;;;;;;48;25.7;;;;;;;-8.1;81.8;101020;;;;
2023/02/09 04:35:45;;;;;;;48;25.7;;;;;;;-8.2;81.3;101010;;;;
2023/02/09 04:46:45;;;;;;;46.4;28.1;;;;;;;-8.4;80.4;101010;;;;
2023/02/09 05:07:44;;;;;;;46.4;28.1;;;;;;;-8.9;80.3;101000;;;;
2023/02/09 05:17:44;;;;;;;56.8;37.7;;;;;;;-9.2;80.6;101000;;;;
2023/02/09 05:28:45;;;;;;;56.8;37.7;;;;;;;-9.2;80.8;100990;;;;
2023/02/09 05:38:45;;;;;;;56.8;37.7;;;;;;;-9.2;81;100980;;;;
2023/02/09 05:49:45;;;;;;;63.7;37.2;;;;;;;-9.2;80.9;100980;;;;
2023/02/09 06:00:44;;;;;;;63.7;37.2;;;;;;;-9.1;81.4;100980;;;;
2023/02/09 06:11:45;;;;;;;63.7;37.2;;;;;;;-9;81.6;100990;;;;
2023/02/09 06:21:44;;;;;;;57.8;37.4;;;;;;;-8.9;81.4;100990;;;;
2023/02/09 06:31:44;;;;;;;57.8;37.4;;;;;;;-8.9;81;100980;;;;
2023/02/09 06:42:44;;;;;;;57.8;37.4;;;;;;;-8.7;81.6;100990;;;;
2023/02/09 06:53:45;;;;;;;61;41;;;;;;;-8.3;81.8;101000;;;;
2023/02/09 07:03:44;;;;;;;61;41;;;;;;;-8;81.5;101010;;;;
2023/02/09 07:13:45;;;;;;;61;41;;;;;;;-7.6;81.4;100990;;;;
2023/02/09 07:24:44;;;;;;;66.2;39.7;;;;;;;-7.2;81.6;100980;;;;
2023/02/09 07:35:44;;;;;;;66.2;39.7;;;;;;;-6.9;82.1;100980;;;;
2023/02/09 07:45:44;;;;;;;54.7;34.4;;;;;;;-6.4;82.1;100990;;;;
2023/02/09 07:55:44;;;;;;;54.7;34.4;;;;;;;-5.9;82;100990;;;;
2023/02/09 08:05:44;;;;;;;54.7;34.4;;;;;;;-5.5;81.6;100990;;;;
2023/02/09 08:15:44;;;;;;;62.5;34.1;;;;;;;-5.2;80.7;100980;;;;
2023/02/09 08:26:44;;;;;;;62.5;34.1;;;;;;;-5;80.8;100970;;;;
2023/02/09 08:37:44;;;;;;;62.5;34.1;;;;;;;-4.2;80.8;100970;;;;
2023/02/09 08:47:44;;;;;;;68.1;39.5;;;;;;;-3.8;80.1;100970;;;;
2023/02/09 08:57:44;;;;;;;68.1;39.5;;;;;;;-3.3;80;100970;;;;
2023/02/09 09:08:44;;;;;;;68.1;39.5;;;;;;;-2.7;79.8;100950;;;;
2023/02/09 09:18:44;;;;;;;60.1;36.1;;;;;;;-2.5;78.6;100950;;;;
2023/02/09 09:29:44;;;;;;;60.1;36.1;;;;;;;-1.8;78.2;100960;;;;
2023/02/09 09:40:44;;;;;;;60.1;36.1;;;;;;;-1.5;77.2;100970;;;;
2023/02/09 09:50:44;;;;;;;45.5;29.2;;;;;;;-1.3;76.3;100970;;;;
2023/02/09 10:01:44;;;;;;;45.5;29.2;;;;;;;-0.8;75.6;100950;;;;
2023/02/09 10:11:44;;;;;;;45.5;29.2;;;;;;;-0.3;74.1;100940;;;;
2023/02/09 10:22:44;;;;;;;44.5;25.9;;;;;;;0;72.4;100940;;;;
2023/02/09 10:32:44;;;;;;;44.5;25.9;;;;;;;0.4;70.1;100930;;;;
2023/02/09 10:42:46;;;;;;;44.5;25.9;;;;;;;0.6;66.7;100900;;;;
2023/02/09 10:52:44;;;;;;;31.8;20.5;;;;;;;1.2;67.2;100900;;;;
2023/02/09 11:03:44;;;;;;;31.8;20.5;;;;;;;2;66.4;100880;;;;
2023/02/09 11:14:44;;;;;;;28.9;20.6;;;;;;;2.2;63.6;100860;;;;
2023/02/09 11:25:45;;;;;;;28.9;20.6;;;;;;;2.8;62.8;100830;;;;
2023/02/09 11:35:44;;;;;;;28.9;20.6;;;;;;;3.3;62.3;100830;;;;
2023/02/09 11:45:44;;;;;;;27.4;19.5;;;;;;;3.6;60.6;100820;;;;
2023/02/09 11:56:44;;;;;;;27.4;19.5;;;;;;;3.9;58.3;100800;;;;
2023/02/09 12:06:44;;;;;;;27.4;19.5;;;;;;;3.7;56.9;100800;;;;
2023/02/09 12:16:44;;;;;;;26.6;19.9;;;;;;;3.8;56.8;100790;;;;
2023/02/09 12:26:45;;;;;;;26.6;19.9;;;;;;;4.1;57.1;100750;;;;
2023/02/09 12:36:44;;;;;;;26.6;19.9;;;;;;;4.1;55;100730;;;;
2023/02/09 12:46:45;;;;;;;23.4;20.7;;;;;;;4.4;55.3;100720;;;;
2023/02/09 12:57:44;;;;;;;23.4;20.7;;;;;;;4.3;52.1;100700;;;;
2023/02/09 13:07:44;;;;;;;23.4;20.7;;;;;;;4.6;53.1;100690;;;;
2023/02/09 13:18:44;;;;;;;21.9;15.3;;;;;;;4.7;51.5;100690;;;;
2023/02/09 13:29:44;;;;;;;21.9;15.3;;;;;;;4.7;50.6;100690;;;;
2023/02/09 13:40:44;;;;;;;21.9;15.3;;;;;;;4.7;50.3;100670;;;;
2023/02/09 13:50:44;;;;;;;16.9;12.7;;;;;;;4.8;49.8;100670;;;;
2023/02/09 14:00:44;;;;;;;16.9;12.7;;;;;;;4.7;49;100660;;;;
2023/02/09 14:11:44;;;;;;;16.9;12.7;;;;;;;4.3;49.5;100650;;;;
2023/02/09 14:21:44;;;;;;;17.1;12.2;;;;;;;4.1;50.4;100650;;;;
2023/02/09 14:32:47;;;;;;;17.1;12.2;;;;;;;4.1;51.1;100650;;;;
2023/02/09 14:43:44;;;;;;;17.1;12.2;;;;;;;3.7;51.4;100630;;;;
2023/02/09 14:53:44;;;;;;;22.3;15.2;;;;;;;3.4;53.1;100620;;;;
2023/02/09 15:04:44;;;;;;;22.3;15.2;;;;;;;3.1;54.2;100620;;;;
2023/02/09 15:14:44;;;;;;;26.9;17.5;;;;;;;2.7;55;100610;;;;
2023/02/09 15:25:44;;;;;;;26.9;17.5;;;;;;;2.3;56.8;100610;;;;
2023/02/09 15:35:44;;;;;;;26.9;17.5;;;;;;;1.8;58.3;100610;;;;
2023/02/09 15:56:44;;;;;;;24.5;13.3;;;;;;;0.8;60.5;100600;;;;
2023/02/09 16:06:44;;;;;;;24.5;13.3;;;;;;;0.3;61.3;100600;;;;
2023/02/09 16:16:44;;;;;;;22.3;11.8;;;;;;;-0.1;63.5;100600;;;;
2023/02/09 16:27:44;;;;;;;22.3;11.8;;;;;;;-0.5;65.6;100590;;;;
2023/02/09 16:38:44;;;;;;;22.3;11.8;;;;;;;-0.8;67.2;100580;;;;
2023/02/09 16:48:44;;;;;;;23;13.2;;;;;;;-1;70.2;100580;;;;
2023/02/09 16:58:44;;;;;;;23;13.2;;;;;;;-0.9;70.9;100580;;;;
2023/02/09 17:09:44;;;;;;;23;13.2;;;;;;;-1;71.4;100580;;;;
2023/02/09 17:19:44;;;;;;;32.1;21.2;;;;;;;-1.1;71.6;100590;;;;
2023/02/09 17:29:44;;;;;;;32.1;21.2;;;;;;;-1.1;71.8;100590;;;;
2023/02/09 17:40:44;;;;;;;32.1;21.2;;;;;;;-1.2;71.3;100600;;;;
2023/02/09 17:51:44;;;;;;;29.7;17.7;;;;;;;-1.2;71.8;100600;;;;
2023/02/09 18:01:44;;;;;;;29.7;17.7;;;;;;;-1.3;71.5;100600;;;;
2023/02/09 18:12:44;;;;;;;29.7;17.7;;;;;;;-1.6;70.9;100580;;;;
2023/02/09 18:23:44;;;;;;;30.1;16.9;;;;;;;-1.9;71.3;100560;;;;
2023/02/09 18:34:44;;;;;;;30.1;16.9;;;;;;;-1.9;73.3;100560;;;;
2023/02/09 18:44:44;;;;;;;30.8;16.2;;;;;;;-1.8;74.3;100560;;;;
2023/02/09 18:55:44;;;;;;;30.8;16.2;;;;;;;-2.1;74.2;100550;;;;
2023/02/09 19:06:44;;;;;;;30.8;16.2;;;;;;;-2.2;74.9;100540;;;;
2023/02/09 19:16:44;;;;;;;29.5;16;;;;;;;-2;74.3;100540;;;;
2023/02/09 19:27:44;;;;;;;29.5;16;;;;;;;-1.9;74.5;100530;;;;
2023/02/09 19:37:44;;;;;;;29.5;16;;;;;;;-1.9;74.6;100510;;;;
2023/02/09 19:47:44;;;;;;;31.4;17.7;;;;;;;-1.9;74.8;100500;;;;
2023/02/09 19:57:44;;;;;;;31.4;17.7;;;;;;;-2.2;74.5;100500;;;;
2023/02/09 20:07:46;;;;;;;31.4;17.7;;;;;;;-2.6;74.2;100490;;;;
2023/02/09 20:17:44;;;;;;;33.2;20.2;;;;;;;-2.9;74.6;100490;;;;
2023/02/09 20:28:44;;;;;;;33.2;20.2;;;;;;;-3.4;75.3;100470;;;;
2023/02/09 20:38:44;;;;;;;33.2;20.2;;;;;;;-3.7;75.5;100470;;;;
2023/02/09 20:49:44;;;;;;;31.9;20.6;;;;;;;-4;75.9;100460;;;;
2023/02/09 20:59:44;;;;;;;31.9;20.6;;;;;;;-4.3;76.4;100460;;;;
2023/02/09 21:10:44;;;;;;;31.9;20.6;;;;;;;-4.5;77.3;100460;;;;
2023/02/09 21:21:44;;;;;;;41.7;23.8;;;;;;;-4.5;77.6;100450;;;;
2023/02/09 21:31:44;;;;;;;41.7;23.8;;;;;;;-4.6;77.7;100450;;;;
2023/02/09 21:42:44;;;;;;;35.1;18.6;;;;;;;-4.7;77.7;100470;;;;
2023/02/09 21:52:44;;;;;;;35.1;18.6;;;;;;;-4.9;77.9;100480;;;;
2023/02/09 22:03:44;;;;;;;35.1;18.6;;;;;;;-5.1;78.5;100480;;;;
2023/02/09 22:14:44;;;;;;;57.3;30.4;;;;;;;-5.2;80.2;100480;;;;
2023/02/09 22:25:44;;;;;;;57.3;30.4;;;;;;;-4.8;79.5;100480;;;;
2023/02/09 22:36:44;;;;;;;57.3;30.4;;;;;;;-4.7;78.8;100470;;;;
2023/02/09 22:46:44;;;;;;;33.5;19.1;;;;;;;-4.4;77.2;100460;;;;
2023/02/09 22:57:44;;;;;;;33.5;19.1;;;;;;;-4.5;76.4;100480;;;;
2023/02/09 23:07:46;;;;;;;33.5;19.1;;;;;;;-4.7;75.9;100490;;;;
2023/02/09 23:18:44;;;;;;;24.4;13.6;;;;;;;-4.5;75.3;100480;;;;
2023/02/09 23:29:44;;;;;;;24.4;13.6;;;;;;;-4.3;73.8;100460;;;;
2023/02/09 23:39:43;;;;;;;24.4;13.6;;;;;;;-4.3;73.6;100490;;;;
2023/02/09 23:50:44;;;;;;;21.6;12.9;;;;;;;-4.4;73.5;100490;;;;
